Terminal Aerodrome Forecast
Issued by NWS North Platte, NE

Current Version | Previous Version | Text Only | Print | Product List | Glossary On
Versions: 1 2 3 4 5 6 7 8 9 10 11 12 13 14
000
FTUS43 KLBF 301122
TAFLBF
TAF
KLBF 301122Z 3012/3112 VRB06KT P6SM SCT200
     FM302100 20011KT P6SM SCT100 PROB30 3021/3024 P6SM -TSRA
      BKN050CB
     FM310000 22009KT P6SM -TSRA BKN050CB
      TEMPO 3100/3104 VRB25G45KT 2SM +TSRA BKN030CB
     FM310400 32009KT P6SM BKN100=

USA.gov is the U.S. government's official web portal to all federal, state and local government web resources and services.